Time;durP1;ratioP1;P1;durP2;ratioP2;P2;SDS_P1;SDS_P2;PMS_P1;PMS_P2;Temp;Humidity;BMP_temperature;BMP_pressure;BME280_temperature;BME280_humidity;BME280_pressure;Samples;Min_cycle;Max_cycle;Signal;HPM_P1;HPM_P2
2022/09/06 00:01:14;;;;;;;7.40;3.72;;;23.50;65.50;;;;;;5060875;28;20392;-74
2022/09/06 00:03:40;;;;;;;6.72;3.00;;;23.50;65.80;;;;;;5062812;28;20149;-71
2022/09/06 00:06:23;;;;;;;7.30;3.08;;;23.50;65.60;;;;;;5061580;28;20103;-72
2022/09/06 00:08:49;;;;;;;8.68;3.55;;;23.40;66.10;;;;;;5062508;28;20036;-71
2022/09/06 00:11:16;;;;;;;7.97;3.20;;;23.40;66.30;;;;;;5061062;28;20012;-72
2022/09/06 00:13:42;;;;;;;9.38;2.80;;;23.40;66.70;;;;;;5060956;28;20024;-72
2022/09/06 00:16:10;;;;;;;5.45;2.83;;;23.40;66.30;;;;;;5060342;28;20074;-72
2022/09/06 00:18:36;;;;;;;5.05;2.70;;;23.40;66.80;;;;;;5060274;28;20085;-72
2022/09/06 00:21:03;;;;;;;6.43;2.67;;;23.40;66.40;;;;;;5059246;28;20475;-72
2022/09/06 00:23:29;;;;;;;8.38;2.97;;;23.40;66.80;;;;;;5061142;28;20088;-73
2022/09/06 00:26:02;;;;;;;4.55;2.33;;;23.40;66.80;;;;;;5060882;28;20112;-73
2022/09/06 00:28:28;;;;;;;7.70;2.90;;;23.40;66.60;;;;;;5064906;28;20016;-72
2022/09/06 00:30:53;;;;;;;5.35;2.30;;;23.40;66.40;;;;;;5058085;28;20129;-72
2022/09/06 00:33:19;;;;;;;8.75;2.97;;;23.50;65.80;;;;;;5062303;28;20020;-73
2022/09/06 00:35:46;;;;;;;5.85;2.55;;;23.40;65.80;;;;;;5058771;28;20013;-72
2022/09/06 00:38:11;;;;;;;6.22;2.22;;;23.50;65.90;;;;;;5063168;28;20021;-72
2022/09/06 00:40:37;;;;;;;3.65;1.60;;;23.50;62.60;;;;;;5060486;28;20020;-72
2022/09/06 00:43:03;;;;;;;6.80;1.92;;;23.40;62.70;;;;;;5063178;28;20019;-71
2022/09/06 00:45:30;;;;;;;4.30;1.83;;;23.30;63.80;;;;;;5060670;28;20028;-71
2022/09/06 00:47:57;;;;;;;8.23;3.03;;;23.20;62.50;;;;;;5062222;28;20497;-71
2022/09/06 00:50:24;;;;;;;6.70;3.25;;;23.20;67.10;;;;;;5060052;28;20043;-72
2022/09/06 00:52:51;;;;;;;4.72;2.15;;;23.10;69.00;;;;;;5062636;28;20049;-72
2022/09/06 00:55:18;;;;;;;5.22;2.15;;;23.10;69.40;;;;;;5058431;28;20036;-72
2022/09/06 00:57:45;;;;;;;6.93;3.13;;;23.00;70.30;;;;;;5060223;28;20036;-72
2022/09/06 01:00:12;;;;;;;7.70;2.50;;;23.00;71.60;;;;;;5059976;28;20074;-71
2022/09/06 01:02:37;;;;;;;4.70;2.45;;;23.00;70.90;;;;;;5058875;28;20106;-71
2022/09/06 01:05:04;;;;;;;8.30;3.45;;;23.00;68.10;;;;;;5061720;28;21001;-71
2022/09/06 01:08:02;;;;;;;5.28;2.70;;;22.90;72.10;;;;;;5060051;28;20080;-72
2022/09/06 01:10:49;;;;;;;5.72;3.05;;;22.80;71.60;;;;;;5057153;28;20040;-71
2022/09/06 01:13:58;;;;;;;6.03;3.10;;;22.70;73.00;;;;;;5058876;28;20070;-71
2022/09/06 01:16:48;;;;;;;7.93;2.97;;;22.60;73.80;;;;;;5062273;28;20012;-72
2022/09/06 01:19:47;;;;;;;5.40;2.40;;;22.50;73.40;;;;;;5063664;28;20750;-72
2022/09/06 01:22:26;;;;;;;7.80;2.47;;;22.30;72.80;;;;;;5062893;28;20037;-71
2022/09/06 01:25:14;;;;;;;9.05;3.47;;;22.30;73.00;;;;;;5065916;28;20107;-71
2022/09/06 01:27:45;;;;;;;6.63;2.75;;;22.40;74.70;;;;;;5057945;28;20102;-71
2022/09/06 01:30:13;;;;;;;6.68;3.42;;;22.40;76.30;;;;;;5063793;28;20025;-71
2022/09/06 01:33:10;;;;;;;5.97;2.92;;;22.40;76.80;;;;;;5058625;28;20803;-71
2022/09/06 01:35:46;;;;;;;6.22;3.25;;;22.30;76.30;;;;;;5057109;28;20082;-71
2022/09/06 01:38:13;;;;;;;5.97;3.30;;;22.20;76.50;;;;;;5057925;28;20025;-72
2022/09/06 01:40:39;;;;;;;4.60;3.20;;;22.20;76.70;;;;;;5063535;28;20035;-71
2022/09/06 01:43:10;;;;;;;5.15;2.63;;;22.10;76.90;;;;;;5057923;28;20017;-71
2022/09/06 01:45:54;;;;;;;9.05;3.90;;;22.10;77.30;;;;;;5061368;28;20665;-71
2022/09/06 01:48:58;;;;;;;5.57;3.42;;;22.10;78.30;;;;;;5058465;28;20515;-71
2022/09/06 01:51:50;;;;;;;6.68;3.50;;;22.10;77.70;;;;;;5065083;28;20020;-72
2022/09/06 01:54:34;;;;;;;7.57;3.53;;;22.10;78.00;;;;;;5059576;28;20032;-71
2022/09/06 01:57:22;;;;;;;8.90;4.10;;;22.10;78.10;;;;;;5063061;28;20027;-71
2022/09/06 02:00:09;;;;;;;6.47;3.63;;;22.10;78.40;;;;;;5065296;28;20020;-72
2022/09/06 02:02:44;;;;;;;8.00;3.70;;;22.10;79.70;;;;;;5063931;28;20530;-72
2022/09/06 02:05:22;;;;;;;7.85;3.40;;;22.10;79.30;;;;;;5061873;28;20029;-72
2022/09/06 02:07:49;;;;;;;5.85;4.15;;;22.20;78.80;;;;;;5065083;28;20045;-71
2022/09/06 02:10:27;;;;;;;6.55;3.63;;;22.20;79.50;;;;;;5063496;28;20021;-71
2022/09/06 02:12:58;;;;;;;8.75;3.95;;;22.10;80.40;;;;;;5062817;28;20023;-71
2022/09/06 02:15:36;;;;;;;3.92;2.55;;;22.10;80.80;;;;;;5063792;28;20032;-70
2022/09/06 02:18:10;;;;;;;6.88;3.08;;;22.10;80.10;;;;;;5063256;28;20100;-70
2022/09/06 02:20:42;;;;;;;4.93;2.83;;;22.00;75.10;;;;;;5063111;28;20056;-70
2022/09/06 02:23:10;;;;;;;4.63;3.10;;;22.00;76.20;;;;;;5063744;28;20108;-70
2022/09/06 02:25:38;;;;;;;6.00;4.40;;;22.00;78.70;;;;;;5060620;28;20177;-69
2022/09/06 02:28:06;;;;;;;6.03;3.55;;;21.90;80.90;;;;;;5065932;28;20019;-70
2022/09/06 02:30:39;;;;;;;6.35;2.95;;;21.80;80.60;;;;;;5061865;28;20031;-70
2022/09/06 02:33:20;;;;;;;6.03;3.60;;;21.70;80.30;;;;;;5064610;28;20054;-70
2022/09/06 02:35:47;;;;;;;;;;;21.70;81.70;;;;;;5062853;28;20056;-70
2022/09/06 02:38:13;;;;;;;5.68;3.40;;;21.70;81.80;;;;;;5068780;28;19912;-70
2022/09/06 02:40:39;;;;;;;9.77;4.55;;;21.60;81.40;;;;;;5061699;28;20028;-69
2022/09/06 02:43:05;;;;;;;6.70;3.40;;;21.60;81.50;;;;;;5065767;28;20025;-70
2022/09/06 02:45:31;;;;;;;6.53;3.85;;;21.60;82.10;;;;;;5044956;28;20021;-70
2022/09/06 02:47:56;;;;;;;7.55;5.10;;;21.60;80.90;;;;;;5065574;28;20025;-70
2022/09/06 02:50:22;;;;;;;9.05;4.55;;;21.50;81.90;;;;;;5062733;28;20013;-71
2022/09/06 02:53:10;;;;;;;5.68;3.80;;;21.40;81.00;;;;;;5066567;28;20047;-70
2022/09/06 02:55:37;;;;;;;6.88;4.63;;;21.40;79.70;;;;;;5062358;28;20024;-70
2022/09/06 02:58:04;;;;;;;5.15;1.85;;;21.40;80.80;;;;;;5065288;28;20028;-72
2022/09/06 03:00:30;;;;;;;7.43;4.00;;;21.40;74.80;;;;;;5061024;28;20025;-70
2022/09/06 03:02:56;;;;;;;7.88;5.28;;;21.30;75.40;;;;;;5062873;28;20028;-71
2022/09/06 03:05:23;;;;;;;11.95;5.00;;;21.30;80.70;;;;;;5060700;28;20021;-71
2022/09/06 03:07:49;;;;;;;6.32;4.65;;;21.30;83.40;;;;;;5065328;28;20099;-71
2022/09/06 03:10:15;;;;;;;8.55;5.03;;;21.30;83.40;;;;;;5063635;28;20494;-70
2022/09/06 03:12:42;;;;;;;9.05;4.95;;;21.30;83.60;;;;;;5063653;28;20020;-71
2022/09/06 03:15:09;;;;;;;9.98;5.47;;;21.40;84.00;;;;;;5061289;28;20403;-72
2022/09/06 03:17:34;;;;;;;7.57;5.28;;;21.40;84.40;;;;;;5063964;28;20074;-70
2022/09/06 03:20:00;;;;;;;7.88;5.63;;;21.40;84.50;;;;;;5063775;28;20494;-71
2022/09/06 03:22:26;;;;;;;7.53;5.15;;;21.40;84.50;;;;;;5061971;28;20024;-71
2022/09/06 03:24:51;;;;;;;8.65;5.47;;;21.30;84.60;;;;;;5066447;28;20395;-70
2022/09/06 03:27:17;;;;;;;9.25;5.40;;;21.30;84.90;;;;;;5059499;28;20041;-71
2022/09/06 03:29:43;;;;;;;8.82;5.30;;;21.30;84.80;;;;;;5064777;28;20013;-71
2022/09/06 03:32:08;;;;;;;8.50;4.93;;;21.30;84.80;;;;;;5060559;28;20509;-70
2022/09/06 03:34:34;;;;;;;7.97;5.18;;;21.30;85.30;;;;;;5064791;28;20032;-71
2022/09/06 03:36:59;;;;;;;7.80;4.30;;;21.30;85.20;;;;;;5060765;28;20029;-69
2022/09/06 03:39:25;;;;;;;8.23;4.70;;;21.40;85.00;;;;;;5063936;28;20059;-70
2022/09/06 03:41:50;;;;;;;8.30;5.65;;;21.40;85.20;;;;;;5060305;28;20599;-71
2022/09/06 03:44:16;;;;;;;7.55;4.85;;;21.40;86.20;;;;;;5067655;28;20013;-71
2022/09/06 03:46:41;;;;;;;8.18;5.05;;;21.30;85.40;;;;;;5062293;28;20403;-70
2022/09/06 03:49:09;;;;;;;6.32;4.32;;;21.30;85.60;;;;;;5061380;28;20081;-70
2022/09/06 03:51:35;;;;;;;7.65;4.30;;;21.30;85.40;;;;;;5059434;28;20021;-70
2022/09/06 03:54:01;;;;;;;9.95;4.70;;;21.30;85.30;;;;;;5062580;28;20077;-69
2022/09/06 03:56:27;;;;;;;6.28;4.75;;;21.40;85.20;;;;;;5062742;28;20017;-71
2022/09/06 03:58:53;;;;;;;9.48;5.30;;;21.40;85.30;;;;;;5061937;28;20038;-71
2022/09/06 04:01:18;;;;;;;7.50;4.72;;;21.40;85.20;;;;;;5064948;28;20475;-71
2022/09/06 04:03:44;;;;;;;9.10;5.43;;;21.40;85.40;;;;;;5058885;28;20036;-71
2022/09/06 04:06:10;;;;;;;8.88;5.43;;;21.40;85.40;;;;;;5065878;28;20376;-71
2022/09/06 04:08:37;;;;;;;7.53;5.10;;;21.40;85.50;;;;;;5058349;28;20471;-71
2022/09/06 04:11:03;;;;;;;7.72;5.05;;;21.40;85.50;;;;;;5063761;28;20450;-71
2022/09/06 04:13:30;;;;;;;7.15;4.65;;;21.40;85.40;;;;;;5061347;28;20016;-73
2022/09/06 04:15:56;;;;;;;8.15;6.15;;;21.40;85.50;;;;;;5062028;28;20024;-71
2022/09/06 04:18:22;;;;;;;7.20;5.18;;;21.30;85.80;;;;;;5058740;28;20021;-72
2022/09/06 04:20:50;;;;;;;10.48;6.07;;;21.30;86.00;;;;;;5062948;28;20052;-71
2022/09/06 04:23:17;;;;;;;8.70;7.30;;;21.30;86.40;;;;;;5059264;28;20025;-70
2022/09/06 04:25:47;;;;;;;9.80;7.72;;;21.30;86.20;;;;;;5062965;28;20021;-71
2022/09/06 04:28:13;;;;;;;;;;;21.30;85.90;;;;;;5063101;28;20017;-70
2022/09/06 04:30:38;;;;;;;12.02;8.77;;;21.30;85.70;;;;;;5062523;28;19928;-71
2022/09/06 04:33:04;;;;;;;9.70;6.72;;;21.40;86.40;;;;;;5060369;28;20067;-70
2022/09/06 04:35:30;;;;;;;10.38;8.05;;;21.30;86.40;;;;;;5063524;28;20089;-71
2022/09/06 04:37:59;;;;;;;10.27;7.47;;;21.40;86.60;;;;;;5062813;28;20121;-70
2022/09/06 04:40:25;;;;;;;9.68;7.65;;;21.40;86.80;;;;;;5059720;28;20045;-72
2022/09/06 04:42:50;;;;;;;11.10;7.45;;;21.50;86.50;;;;;;5058257;28;20051;-71
2022/09/06 04:45:16;;;;;;;11.23;8.95;;;21.50;86.30;;;;;;5057880;28;20031;-70
2022/09/06 04:47:42;;;;;;;10.43;7.70;;;21.50;86.40;;;;;;5060076;28;20036;-71
2022/09/06 04:50:07;;;;;;;11.65;7.60;;;21.60;86.70;;;;;;5057815;28;20013;-71
2022/09/06 04:52:33;;;;;;;10.95;7.90;;;21.60;86.30;;;;;;5062839;28;20024;-72
2022/09/06 04:54:59;;;;;;;10.80;7.65;;;21.60;86.10;;;;;;5055081;28;20742;-71
2022/09/06 04:57:24;;;;;;;8.98;7.25;;;21.60;86.30;;;;;;5061417;28;20024;-70
2022/09/06 04:59:50;;;;;;;10.02;7.65;;;21.60;86.20;;;;;;5057850;28;20044;-71
2022/09/06 05:02:15;;;;;;;8.52;7.22;;;21.60;85.80;;;;;;5063332;28;20048;-71
2022/09/06 05:04:41;;;;;;;10.50;6.70;;;21.60;85.70;;;;;;5065414;28;20399;-70
2022/09/06 05:07:08;;;;;;;12.32;7.78;;;21.60;85.40;;;;;;5063441;28;20020;-70
2022/09/06 05:09:34;;;;;;;10.00;7.50;;;21.60;85.20;;;;;;5068288;28;20024;-69
2022/09/06 05:12:00;;;;;;;11.10;7.50;;;21.60;85.60;;;;;;5067666;28;20028;-72
2022/09/06 05:14:27;;;;;;;10.10;7.22;;;21.60;85.80;;;;;;5067929;28;20059;-71
2022/09/06 05:16:53;;;;;;;10.25;7.75;;;21.60;85.90;;;;;;5068166;28;20016;-70
2022/09/06 05:19:19;;;;;;;11.68;6.93;;;21.60;85.80;;;;;;5068775;28;20025;-70
2022/09/06 05:21:50;;;;;;;9.50;6.47;;;21.60;84.40;;;;;;5069334;28;20094;-72
2022/09/06 05:24:16;;;;;;;9.80;6.70;;;21.50;82.50;;;;;;5069873;28;20020;-70
2022/09/06 05:26:41;;;;;;;10.15;7.07;;;21.50;82.20;;;;;;5061595;28;20044;-70
2022/09/06 05:29:07;;;;;;;10.18;7.45;;;21.50;82.60;;;;;;5070738;28;20104;-70
2022/09/06 05:31:34;;;;;;;11.07;7.68;;;21.50;82.50;;;;;;5069345;28;20040;-71
2022/09/06 05:34:00;;;;;;;9.45;7.55;;;21.50;83.50;;;;;;5067885;28;20154;-71
2022/09/06 05:36:27;;;;;;;11.90;7.75;;;21.50;83.00;;;;;;5052325;28;20024;-71
2022/09/06 05:38:54;;;;;;;10.02;7.57;;;21.50;83.40;;;;;;5067194;28;20049;-71
2022/09/06 05:41:21;;;;;;;10.63;7.38;;;21.50;83.80;;;;;;5069054;28;20046;-70
2022/09/06 05:43:47;;;;;;;9.05;7.60;;;21.50;84.30;;;;;;5068787;28;20057;-71
2022/09/06 05:46:14;;;;;;;11.43;8.60;;;21.50;84.70;;;;;;5068891;28;20123;-70
2022/09/06 05:48:41;;;;;;;10.07;7.75;;;21.50;84.90;;;;;;5069084;28;20078;-71
2022/09/06 05:51:11;;;;;;;10.75;8.63;;;21.50;84.90;;;;;;5069089;28;20540;-71
2022/09/06 05:53:41;;;;;;;10.85;8.05;;;21.50;85.10;;;;;;5068757;28;20475;-71
2022/09/06 05:56:08;;;;;;;10.13;8.52;;;21.50;85.10;;;;;;5068709;28;20099;-71
2022/09/06 05:58:34;;;;;;;12.48;7.68;;;21.50;85.80;;;;;;5067951;28;20024;-71
2022/09/06 06:01:27;;;;;;;9.20;7.35;;;21.50;85.40;;;;;;5068542;28;20036;-70
2022/09/06 06:03:55;;;;;;;10.77;7.70;;;21.50;85.20;;;;;;5069084;28;20043;-71
2022/09/06 06:06:22;;;;;;;11.85;7.82;;;21.50;84.40;;;;;;5069847;28;20753;-71
2022/09/06 06:08:48;;;;;;;11.63;7.50;;;21.50;84.00;;;;;;5070116;28;20019;-70
2022/09/06 06:11:14;;;;;;;9.82;7.90;;;21.50;84.00;;;;;;5070620;28;20025;-70
2022/09/06 06:13:42;;;;;;;9.20;7.03;;;21.60;83.90;;;;;;5069160;28;20527;-71
2022/09/06 06:16:19;;;;;;;9.70;8.05;;;21.60;83.70;;;;;;5069336;28;20017;-71
2022/09/06 06:18:45;;;;;;;13.10;8.23;;;21.70;84.20;;;;;;5069345;28;20036;-71
2022/09/06 06:21:15;;;;;;;11.52;8.48;;;21.70;83.80;;;;;;5070330;28;20638;-70
2022/09/06 06:23:43;;;;;;;7.00;5.18;;;21.80;83.60;;;;;;5070383;28;20111;-68
2022/09/06 06:26:09;;;;;;;4.15;2.60;;;21.80;83.00;;;;;;5069173;28;20090;-68
2022/09/06 06:28:36;;;;;;;3.60;1.67;;;22.00;82.20;;;;;;5062999;28;20053;-71
2022/09/06 06:31:03;;;;;;;4.93;3.28;;;22.40;80.80;;;;;;5058379;28;20017;-70
2022/09/06 06:33:29;;;;;;;4.00;2.70;;;22.70;79.10;;;;;;5055039;28;20104;-69
2022/09/06 06:36:02;;;;;;;5.55;3.10;;;23.10;78.30;;;;;;5064920;28;20693;-68
2022/09/06 06:38:36;;;;;;;6.20;3.97;;;23.40;76.00;;;;;;5070279;28;20024;-69
2022/09/06 06:41:04;;;;;;;8.57;6.20;;;23.70;74.70;;;;;;5069844;28;20490;-70
2022/09/06 06:43:35;;;;;;;5.68;3.88;;;23.80;74.10;;;;;;5057160;28;20526;-69
2022/09/06 06:46:15;;;;;;;4.55;3.13;;;23.80;74.10;;;;;;5070553;28;20496;-70
2022/09/06 06:48:43;;;;;;;6.97;4.03;;;23.80;74.00;;;;;;5072150;28;20394;-70
2022/09/06 06:51:10;;;;;;;6.32;4.07;;;23.90;73.10;;;;;;5073223;28;20021;-70
2022/09/06 06:53:36;;;;;;;4.82;2.88;;;24.00;73.30;;;;;;5064828;28;20105;-69
2022/09/06 06:56:22;;;;;;;5.38;2.90;;;24.20;72.70;;;;;;5065886;28;20017;-70
2022/09/06 06:58:51;;;;;;;6.10;4.80;;;24.40;72.10;;;;;;5060325;28;20047;-70
2022/09/06 07:01:19;;;;;;;5.90;3.83;;;24.60;71.40;;;;;;5066024;28;20064;-70
2022/09/06 07:03:45;;;;;;;6.20;4.38;;;24.80;70.70;;;;;;5062077;28;20017;-69
2022/09/06 07:06:12;;;;;;;6.30;3.55;;;24.90;69.30;;;;;;5065231;28;20025;-69
2022/09/06 07:08:39;;;;;;;5.55;3.58;;;24.90;69.50;;;;;;5059534;28;20521;-70
2022/09/06 07:11:06;;;;;;;5.95;3.97;;;24.90;69.40;;;;;;5065806;28;20020;-68
2022/09/06 07:13:33;;;;;;;7.22;4.05;;;24.90;68.10;;;;;;5061893;28;20020;-69
2022/09/06 07:16:34;;;;;;;6.82;4.93;;;24.90;66.20;;;;;;5060617;28;20032;-69
2022/09/06 07:18:59;;;;;;;8.82;5.53;;;24.80;66.70;;;;;;5059824;28;20112;-70
2022/09/06 07:21:25;;;;;;;6.25;3.97;;;24.80;67.00;;;;;;5062285;28;20167;-69
2022/09/06 07:23:55;;;;;;;6.28;3.40;;;24.60;67.60;;;;;;5063610;28;20447;-70
2022/09/06 07:26:26;;;;;;;6.88;4.97;;;24.60;66.20;;;;;;5065885;28;20029;-72
2022/09/06 07:28:56;;;;;;;7.15;4.40;;;24.70;66.20;;;;;;5060280;28;20025;-70
2022/09/06 07:31:21;;;;;;;7.45;4.93;;;24.70;66.60;;;;;;5059514;28;20108;-69
2022/09/06 07:33:47;;;;;;;6.53;4.43;;;24.60;67.10;;;;;;5070752;28;20020;-69
2022/09/06 07:36:13;;;;;;;5.80;3.60;;;24.70;67.50;;;;;;5067951;28;20021;-70
2022/09/06 07:38:39;;;;;;;9.40;6.25;;;24.70;67.80;;;;;;5062536;28;20071;-71
2022/09/06 07:41:07;;;;;;;7.28;5.32;;;24.90;67.00;;;;;;5064870;28;20440;-69
2022/09/06 07:43:33;;;;;;;9.05;6.30;;;24.90;66.90;;;;;;5068496;28;20078;-70
2022/09/06 07:46:04;;;;;;;7.95;5.78;;;24.90;65.90;;;;;;5066571;28;20464;-71
2022/09/06 07:48:32;;;;;;;7.38;4.35;;;24.90;65.10;;;;;;5070353;28;20020;-70
2022/09/06 07:51:11;;;;;;;6.50;3.17;;;24.80;64.90;;;;;;5071614;28;20040;-71
2022/09/06 07:53:39;;;;;;;7.35;5.88;;;24.90;65.30;;;;;;5071321;28;20112;-70
2022/09/06 07:56:07;;;;;;;7.60;3.88;;;25.00;64.20;;;;;;5070487;28;20017;-70
2022/09/06 07:58:33;;;;;;;4.95;2.97;;;25.00;64.50;;;;;;5071821;28;20023;-71
2022/09/06 08:01:15;;;;;;;5.82;3.42;;;25.10;64.20;;;;;;5071649;28;20120;-70
2022/09/06 08:03:41;;;;;;;4.78;2.80;;;25.30;63.90;;;;;;5071680;28;20078;-70
2022/09/06 08:06:07;;;;;;;6.43;2.47;;;25.50;63.40;;;;;;5070121;28;20020;-71
2022/09/06 08:08:33;;;;;;;8.40;4.60;;;25.60;62.10;;;;;;5071194;28;20035;-72
2022/09/06 08:10:58;;;;;;;5.13;3.20;;;25.80;61.80;;;;;;5070359;28;20508;-71
2022/09/06 08:13:24;;;;;;;5.78;3.15;;;25.90;61.40;;;;;;5069097;28;20078;-71
2022/09/06 08:16:00;;;;;;;3.38;1.98;;;26.10;61.40;;;;;;5065248;28;20112;-71
2022/09/06 08:18:26;;;;;;;5.85;2.78;;;26.30;60.20;;;;;;5062580;28;20078;-70
2022/09/06 08:20:51;;;;;;;4.32;2.75;;;26.50;59.50;;;;;;5071346;28;20490;-71
2022/09/06 08:23:17;;;;;;;6.95;3.67;;;26.60;59.40;;;;;;5071276;28;20487;-69
2022/09/06 08:25:43;;;;;;;9.13;4.57;;;26.70;59.10;;;;;;5069486;28;20024;-70
2022/09/06 08:28:08;;;;;;;5.60;3.33;;;26.70;59.10;;;;;;5059664;28;20071;-69
2022/09/06 08:30:34;;;;;;;5.30;2.75;;;26.70;58.60;;;;;;5071106;28;20024;-71
2022/09/06 08:33:00;;;;;;;7.45;4.40;;;26.60;58.80;;;;;;5071051;28;20130;-71
2022/09/06 08:35:26;;;;;;;5.57;3.28;;;26.60;59.20;;;;;;5067986;28;20048;-72
2022/09/06 08:37:51;;;;;;;7.95;4.78;;;26.60;59.30;;;;;;5070394;28;20049;-71
2022/09/06 08:40:20;;;;;;;4.90;3.22;;;26.60;58.60;;;;;;5066654;28;20464;-73
2022/09/06 08:42:47;;;;;;;6.47;2.90;;;26.60;59.10;;;;;;5054469;28;20062;-73
2022/09/06 08:45:18;;;;;;;7.32;3.25;;;26.70;58.50;;;;;;5060527;28;20029;-73
2022/09/06 08:47:44;;;;;;;3.92;2.55;;;26.70;58.20;;;;;;5056579;28;20028;-72
2022/09/06 08:50:10;;;;;;;5.88;4.00;;;26.70;58.60;;;;;;5059023;28;20111;-72
2022/09/06 08:52:54;;;;;;;7.00;3.05;;;26.80;58.60;;;;;;5058048;28;20021;-71
2022/09/06 08:55:23;;;;;;;6.03;2.80;;;26.90;58.60;;;;;;5058700;28;20548;-73
2022/09/06 08:58:34;;;;;;;4.68;2.33;;;27.20;58.30;;;;;;5055675;28;20717;-73
2022/09/06 09:01:06;;;;;;;6.82;3.10;;;27.40;58.00;;;;;;5053949;28;20087;-72
2022/09/06 09:03:40;;;;;;;5.25;2.45;;;27.60;57.50;;;;;;5052180;28;20028;-72
2022/09/06 09:06:09;;;;;;;4.00;1.95;;;27.60;57.60;;;;;;5053788;28;20032;-71
2022/09/06 09:08:51;;;;;;;4.35;2.53;;;27.80;57.40;;;;;;5058891;28;20047;-71
2022/09/06 09:11:22;;;;;;;4.18;2.30;;;28.10;57.20;;;;;;5056982;28;20542;-72
2022/09/06 09:14:02;;;;;;;4.90;2.10;;;28.20;56.40;;;;;;5055046;28;21900;-70
2022/09/06 09:16:28;;;;;;;4.70;2.53;;;28.20;56.50;;;;;;5053607;28;20059;-71
2022/09/06 09:19:00;;;;;;;5.22;2.90;;;28.30;56.60;;;;;;5054118;28;20036;-72
2022/09/06 09:21:28;;;;;;;4.43;2.20;;;28.20;56.50;;;;;;5058553;28;20056;-72
2022/09/06 09:23:57;;;;;;;6.72;2.25;;;28.20;56.60;;;;;;5055302;28;20156;-73
2022/09/06 09:26:25;;;;;;;5.57;2.75;;;28.30;56.10;;;;;;5055475;28;20049;-72
2022/09/06 09:29:12;;;;;;;4.20;2.05;;;28.40;56.80;;;;;;5053342;28;20036;-72
2022/09/06 09:31:50;;;;;;;5.05;2.78;;;28.50;55.50;;;;;;5056428;28;20502;-71
2022/09/06 09:34:41;;;;;;;2.90;1.50;;;28.60;54.70;;;;;;5054190;28;20029;-72
2022/09/06 09:37:10;;;;;;;4.15;1.98;;;28.70;56.00;;;;;;5057573;28;20127;-71
2022/09/06 09:39:41;;;;;;;6.13;2.65;;;28.70;55.80;;;;;;5059124;28;20028;-72
2022/09/06 09:42:08;;;;;;;3.88;2.15;;;28.80;54.50;;;;;;5056696;28;20119;-72
2022/09/06 09:44:41;;;;;;;4.57;2.00;;;28.70;54.20;;;;;;5056393;28;20440;-72
2022/09/06 09:47:27;;;;;;;3.83;1.73;;;28.70;54.40;;;;;;5055525;28;20029;-73
2022/09/06 09:49:56;;;;;;;6.20;2.80;;;28.70;55.70;;;;;;5058551;28;20036;-72
2022/09/06 09:52:29;;;;;;;2.92;1.40;;;28.70;52.90;;;;;;5055198;28;20055;-72
2022/09/06 09:55:04;;;;;;;5.68;2.17;;;28.80;56.10;;;;;;5052749;28;20021;-71
2022/09/06 09:57:46;;;;;;;5.63;2.42;;;29.00;55.50;;;;;;5052926;28;20033;-71
2022/09/06 10:00:12;;;;;;;3.70;1.55;;;28.90;53.80;;;;;;5055369;28;20021;-71
2022/09/06 10:02:40;;;;;;;4.97;1.83;;;28.80;55.20;;;;;;5058055;28;20549;-71
2022/09/06 10:05:12;;;;;;;3.78;1.95;;;29.00;55.30;;;;;;5056342;28;20017;-72
2022/09/06 10:07:50;;;;;;;5.03;2.97;;;29.10;54.10;;;;;;5057893;28;20086;-71
2022/09/06 10:10:23;;;;;;;3.80;1.67;;;29.20;51.20;;;;;;5054655;28;20036;-72
2022/09/06 10:13:10;;;;;;;3.63;2.00;;;29.30;52.90;;;;;;5055522;28;20547;-72
2022/09/06 10:15:39;;;;;;;4.43;1.77;;;29.50;54.20;;;;;;5058403;28;20028;-74
2022/09/06 10:18:19;;;;;;;9.95;1.48;;;29.70;57.90;;;;;;5057173;28;20020;-73
2022/09/06 10:21:14;;;;;;;2.83;1.38;;;29.70;55.60;;;;;;5058405;28;20090;-73
2022/09/06 10:23:46;;;;;;;10.18;1.83;;;29.80;57.00;;;;;;5061212;28;20040;-71
2022/09/06 10:26:26;;;;;;;2.60;1.40;;;29.80;55.20;;;;;;5057029;28;20029;-71
2022/09/06 10:29:03;;;;;;;5.28;2.25;;;30.00;57.00;;;;;;5060636;28;20032;-71
2022/09/06 10:31:35;;;;;;;4.95;2.30;;;30.20;53.00;;;;;;5057446;28;20028;-71
2022/09/06 10:34:10;;;;;;;5.03;2.17;;;30.30;53.70;;;;;;5057683;28;20098;-70
2022/09/06 10:37:05;;;;;;;2.42;1.50;;;30.40;55.10;;;;;;5057842;28;20487;-72
2022/09/06 10:39:42;;;;;;;3.53;2.05;;;30.50;53.80;;;;;;5056451;28;20543;-72
2022/09/06 10:42:24;;;;;;;6.75;1.92;;;30.60;53.10;;;;;;5056951;28;20075;-71
2022/09/06 10:45:03;;;;;;;3.80;1.92;;;30.60;54.10;;;;;;5061039;28;20089;-73
2022/09/06 10:47:53;;;;;;;4.22;1.60;;;30.80;54.70;;;;;;5059901;28;20052;-72
2022/09/06 10:50:19;;;;;;;5.68;2.60;;;30.70;53.50;;;;;;5058709;28;20028;-73
2022/09/06 10:52:47;;;;;;;4.05;2.08;;;30.60;49.90;;;;;;5054884;28;20055;-72
2022/09/06 10:55:17;;;;;;;4.78;1.60;;;30.60;51.00;;;;;;5056062;28;20025;-72
2022/09/06 10:57:55;;;;;;;4.95;2.38;;;30.60;53.60;;;;;;5057930;28;20028;-73
2022/09/06 11:00:21;;;;;;;4.65;2.30;;;30.60;52.10;;;;;;5059361;28;20021;-73
2022/09/06 11:03:08;;;;;;;3.83;1.55;;;30.80;52.80;;;;;;5060153;28;20125;-73
2022/09/06 11:05:40;;;;;;;3.97;2.10;;;31.00;54.80;;;;;;5065768;28;20032;-73
2022/09/06 11:08:51;;;;;;;6.07;2.00;;;31.30;51.10;;;;;;5057451;28;20110;-74
2022/09/06 11:11:39;;;;;;;4.63;1.50;;;31.60;54.60;;;;;;5068608;28;20032;-73
2022/09/06 11:14:10;;;;;;;8.25;2.17;;;31.80;52.70;;;;;;5064075;28;20079;-74
2022/09/06 11:16:48;;;;;;;8.45;2.85;;;31.80;46.00;;;;;;5060877;28;20048;-73
2022/09/06 11:20:03;;;;;;;7.55;3.25;;;31.60;50.00;;;;;;5064369;28;20025;-73
2022/09/06 11:22:46;;;;;;;8.50;2.65;;;31.70;49.80;;;;;;5067603;28;20041;-73
2022/09/06 11:25:45;;;;;;;5.00;2.53;;;31.70;48.80;;;;;;5072120;28;20042;-73
2022/09/06 11:28:36;;;;;;;5.15;2.15;;;31.80;46.00;;;;;;5068057;28;20025;-73
2022/09/06 11:31:02;;;;;;;5.85;2.10;;;31.90;51.60;;;;;;5069298;28;20032;-72
2022/09/06 11:33:34;;;;;;;5.95;2.45;;;32.10;48.20;;;;;;5058689;28;20048;-77
2022/09/06 11:36:29;;;;;;;5.55;2.60;;;32.20;48.40;;;;;;5064019;28;20021;-77
2022/09/06 11:38:58;;;;;;;4.03;2.28;;;32.30;50.80;;;;;;5062410;28;20873;-74
2022/09/06 11:41:31;;;;;;;5.20;2.88;;;32.30;50.70;;;;;;5064802;28;20055;-73
2022/09/06 11:43:57;;;;;;;4.63;2.13;;;32.30;50.00;;;;;;5063358;28;20100;-72
2022/09/06 11:46:32;;;;;;;8.63;2.30;;;32.20;52.30;;;;;;5064806;28;20507;-72
2022/09/06 11:49:02;;;;;;;6.30;1.65;;;32.10;48.00;;;;;;5059447;28;20025;-72
2022/09/06 11:51:40;;;;;;;5.85;2.20;;;32.20;48.70;;;;;;5064730;28;20020;-73
2022/09/06 11:54:18;;;;;;;3.70;1.17;;;32.20;52.60;;;;;;5061995;28;20017;-73
2022/09/06 11:57:16;;;;;;;7.20;1.38;;;32.40;52.10;;;;;;5060958;28;20592;-73
2022/09/06 12:00:02;;;;;;;5.60;2.97;;;32.70;54.40;;;;;;5061165;28;20039;-73
2022/09/06 12:02:41;;;;;;;6.47;3.10;;;33.00;46.50;;;;;;5064295;28;20028;-72
2022/09/06 12:05:10;;;;;;;6.70;2.42;;;33.20;45.40;;;;;;5061198;28;20051;-73
2022/09/06 12:07:37;;;;;;;;;;;33.10;44.80;;;;;;5062419;28;20587;-73
2022/09/06 12:10:48;;;;;;;4.32;1.58;;;33.20;45.70;;;;;;5071665;28;19991;-75
2022/09/06 12:13:39;;;;;;;6.28;1.98;;;33.10;46.70;;;;;;5068216;28;20036;-74
2022/09/06 12:16:06;;;;;;;5.75;1.70;;;33.20;45.00;;;;;;5069781;28;20075;-73
2022/09/06 12:18:48;;;;;;;5.82;2.35;;;33.20;50.00;;;;;;5070484;28;20096;-74
2022/09/06 12:21:35;;;;;;;4.28;2.03;;;33.20;44.30;;;;;;5070371;28;20059;-74
2022/09/06 12:24:01;;;;;;;4.03;2.42;;;33.20;44.80;;;;;;5070473;28;20029;-73
2022/09/06 12:26:48;;;;;;;6.15;2.65;;;33.30;45.90;;;;;;5069033;28;20364;-73
2022/09/06 12:29:14;;;;;;;10.32;2.22;;;33.30;48.60;;;;;;5056026;28;20032;-75
2022/09/06 12:31:43;;;;;;;6.72;2.17;;;33.40;46.90;;;;;;5062401;28;20114;-72
2022/09/06 12:34:18;;;;;;;6.63;2.25;;;33.40;44.90;;;;;;5060130;28;20021;-72
2022/09/06 12:36:57;;;;;;;4.65;1.88;;;33.50;48.60;;;;;;5061889;28;20501;-74
2022/09/06 12:39:23;;;;;;;4.32;1.77;;;33.40;47.50;;;;;;5069989;28;20081;-72
2022/09/06 12:41:53;;;;;;;9.35;1.80;;;33.50;47.30;;;;;;5069785;28;20475;-72
2022/09/06 12:44:32;;;;;;;5.93;1.98;;;33.50;47.00;;;;;;5069588;28;20028;-75
2022/09/06 12:47:05;;;;;;;4.97;1.83;;;33.60;47.20;;;;;;5069224;28;20103;-74
2022/09/06 12:49:32;;;;;;;5.22;2.30;;;33.50;47.80;;;;;;5070216;28;20159;-72
2022/09/06 12:52:13;;;;;;;5.53;2.38;;;33.50;47.30;;;;;;5067144;28;20028;-72
2022/09/06 12:54:48;;;;;;;6.22;2.13;;;33.40;45.60;;;;;;5065620;28;20028;-72
2022/09/06 12:57:22;;;;;;;4.75;2.15;;;33.40;44.10;;;;;;5064142;28;20077;-74
2022/09/06 12:59:57;;;;;;;4.10;1.50;;;33.20;48.60;;;;;;5066899;28;20112;-72
2022/09/06 13:02:41;;;;;;;5.78;3.13;;;33.10;49.00;;;;;;5066852;28;20025;-73
2022/09/06 13:05:11;;;;;;;4.65;2.03;;;33.10;44.30;;;;;;5065320;28;20550;-72
2022/09/06 13:07:44;;;;;;;6.85;2.15;;;33.10;45.60;;;;;;5065815;28;20114;-72
2022/09/06 13:10:16;;;;;;;6.10;3.17;;;33.10;43.90;;;;;;5065503;28;20670;-71